^^
Grace C. Lehan Memorial Weather Station Historical Data
Daily Summary for August 08, 2022 Units:  English    Metric   Both
Daily Weekly Monthly Yearly
  High: Low: Average:
Temperature: 96.3 °F 75.7 °F 82.1 °F
Dew Point: 78.9 °F 71.9 °F 74.6 °F
Humidity: 89% 53.6% 79%
Wind Speed: 2.9mph 0mph 0.2mph
Wind Gust: 15mph - -
Wind- - WSW
Pressure: 30.00 in 29.90 in -
Precipitation: 0.06 in    
 
 
Tabular Data for August 08, 2022
Time Temperature Dew Point Pressure Wind Wind Speed Wind Gust Humidity Rainfall Rate (Hourly) solar
00:00 78.4 °F 72.8 °F 30.00 in Calm     83% 0.00 in 0 W/m2
00:09 78.3 °F 73 °F 30.00 in Calm     83.8% 0.00 in 0 W/m2
00:14 78.2 °F 73 °F 30.00 in Calm     84% 0.00 in 0 W/m2
00:19 78.2 °F 72.9 °F 30.00 in Calm     84% 0.00 in 0 W/m2
00:24 78.1 °F 72.9 °F 30.00 in Calm     84% 0.00 in 0 W/m2
00:29 78 °F 73.1 °F 30.00 in Calm     84.8% 0.00 in 0 W/m2
00:34 77.9 °F 73.1 °F 30.00 in Calm     85% 0.00 in 0 W/m2
00:39 77.9 °F 73 °F 30.00 in Calm     85% 0.00 in 0 W/m2
00:44 77.9 °F 73 °F 30.00 in Calm     85% 0.00 in 0 W/m2
00:49 77.8 °F 73.2 °F 30.00 in Calm     85.9% 0.00 in 0 W/m2
00:54 77.8 °F 73.3 °F 30.00 in Calm     86% 0.00 in 0 W/m2
00:59 77.7 °F 73.2 °F 30.00 in Calm     86% 0.00 in 0 W/m2
01:04 77.7 °F 73.2 °F 30.00 in Calm     86% 0.00 in 0 W/m2
01:09 77.6 °F 73.1 °F 30.00 in Calm     86% 0.00 in 0 W/m2
01:14 77.6 °F 73.1 °F 30.00 in Calm     86.1% 0.00 in 0 W/m2
01:19 77.5 °F 73.3 °F 30.00 in Calm     87% 0.00 in 0 W/m2
01:24 77.5 °F 73.3 °F 30.00 in Calm     87% 0.00 in 0 W/m2
01:29 77.4 °F 73.2 °F 30.00 in Calm   1 mph 87% 0.00 in 0 W/m2
01:34 77.4 °F 73.2 °F 30.00 in Calm   1 mph 87% 0.00 in 0 W/m2
01:39 77.4 °F 73.2 °F 29.99 in Calm     87% 0.00 in 0 W/m2
01:44 77.5 °F 73.3 °F 30.00 in Calm     87% 0.00 in 0 W/m2
01:49 77.5 °F 73.4 °F 30.00 in Calm     87% 0.00 in 0 W/m2
01:54 77.6 °F 73.5 °F 29.99 in Calm     87% 0.00 in 0 W/m2
01:59 77.7 °F 73.5 °F 29.99 in Calm     87% 0.00 in 0 W/m2
02:04 77.8 °F 73.6 °F 29.98 in Calm     86.8% 0.00 in 0 W/m2
02:09 77.8 °F 73.3 °F 29.98 in Calm     86% 0.00 in 0 W/m2
02:14 77.8 °F 73.3 °F 29.98 in Calm     86% 0.00 in 0 W/m2
02:19 77.9 °F 73.3 °F 29.98 in Calm     86% 0.00 in 0 W/m2
02:24 77.8 °F 73.3 °F 29.98 in Calm     86% 0.00 in 0 W/m2
02:29 77.8 °F 73.3 °F 29.99 in Calm     86% 0.00 in 0 W/m2
02:34 77.8 °F 73.3 °F 29.98 in Calm     86% 0.00 in 0 W/m2
02:39 77.8 °F 73.2 °F 29.98 in Calm     86% 0.00 in 0 W/m2
02:44 77.7 °F 73.2 °F 29.98 in Calm     86% 0.00 in 0 W/m2
02:49 77.7 °F 73.1 °F 29.98 in Calm     86% 0.00 in 0 W/m2
02:54 77.6 °F 73.1 °F 29.98 in Calm     86% 0.00 in 0 W/m2
02:59 77.6 °F 73.1 °F 29.98 in Calm     86% 0.00 in 0 W/m2
03:04 77.5 °F 73 °F 29.98 in Calm     86% 0.00 in 0 W/m2
03:09 77.5 °F 73.3 °F 29.98 in Calm     87% 0.00 in 0 W/m2
03:14 77.4 °F 73 °F 29.98 in Calm     86.4% 0.00 in 0 W/m2
03:19 77.3 °F 73 °F 29.98 in Calm     86.7% 0.00 in 0 W/m2
03:24 77.3 °F 73.1 °F 29.98 in Calm     87% 0.00 in 0 W/m2
03:29 77.2 °F 73 °F 29.97 in Calm     87% 0.00 in 0 W/m2
03:34 77.2 °F 73 °F 29.97 in Calm     87% 0.00 in 0 W/m2
03:39 77.1 °F 73 °F 29.97 in Calm     87% 0.00 in 0 W/m2
03:44 77.1 °F 72.9 °F 29.97 in Calm     87% 0.00 in 0 W/m2
03:49 77 °F 72.9 °F 29.98 in Calm     87% 0.00 in 0 W/m2
03:54 76.9 °F 72.8 °F 29.98 in Calm     87% 0.00 in 0 W/m2
03:59 76.9 °F 72.7 °F 29.97 in Calm     87% 0.00 in 0 W/m2
04:00 76.8 °F 72.6 °F 29.97 in Calm     87% 0.00 in 0 W/m2
04:09 76.7 °F 72.9 °F 29.97 in Calm     88% 0.00 in 0 W/m2
04:14 76.7 °F 72.8 °F 29.97 in Calm     88% 0.00 in 0 W/m2
04:19 76.6 °F 72.8 °F 29.97 in Calm     88% 0.00 in 0 W/m2
04:24 76.5 °F 72.7 °F 29.97 in Calm     88% 0.00 in 0 W/m2
04:29 76.5 °F 72.7 °F 29.97 in WSW 0.1 mph 2 mph 88% 0.00 in 0 W/m2
04:34 76.4 °F 72.6 °F 29.97 in Calm   2 mph 88% 0.00 in 0 W/m2
04:39 76.4 °F 72.6 °F 29.97 in Calm     88% 0.00 in 0 W/m2
04:44 76.4 °F 72.6 °F 29.97 in Calm   1 mph 88% 0.00 in 0 W/m2
04:49 76.4 °F 72.6 °F 29.97 in WSW 0.1 mph 2 mph 88% 0.00 in 0 W/m2
04:54 76.4 °F 72.6 °F 29.97 in Calm   2 mph 88% 0.00 in 0 W/m2
04:59 76.4 °F 72.6 °F 29.97 in Calm   2 mph 87.9% 0.00 in 0 W/m2
05:04 76.4 °F 72.3 °F 29.97 in Calm   2 mph 87% 0.00 in 0 W/m2
05:09 76.4 °F 72.3 °F 29.97 in Calm     87% 0.00 in 0 W/m2
05:14 76.4 °F 72.2 °F 29.97 in Calm     87% 0.00 in 0 W/m2
05:19 76.3 °F 72.2 °F 29.97 in Calm     87% 0.00 in 0 W/m2
05:24 76.3 °F 72.1 °F 29.97 in Calm     87% 0.00 in 0 W/m2
05:29 76.2 °F 72 °F 29.97 in Calm     87% 0.00 in 0 W/m2
05:34 76.1 °F 72 °F 29.97 in Calm     87% 0.00 in 0 W/m2
05:39 76.1 °F 71.9 °F 29.97 in Calm     87% 0.00 in 0 W/m2
05:44 76 °F 72.1 °F 29.97 in Calm     87.6% 0.00 in 0 W/m2
05:49 75.9 °F 72.1 °F 29.97 in Calm     88% 0.00 in 0 W/m2
05:54 75.9 °F 72.1 °F 29.97 in Calm     88% 0.00 in 0 W/m2
05:59 75.8 °F 72 °F 29.97 in Calm     88% 0.00 in 5 W/m2
06:04 75.8 °F 72 °F 29.97 in Calm     88% 0.00 in 7 W/m2
06:09 75.8 °F 72.1 °F 29.97 in Calm     88.5% 0.00 in 11 W/m2
06:14 75.7 °F 72.2 °F 29.97 in Calm     89% 0.00 in 12 W/m2
06:19 75.7 °F 72.2 °F 29.98 in Calm     89% 0.00 in 18 W/m2
06:24 75.7 °F 72.3 °F 29.98 in Calm     89% 0.00 in 25 W/m2
06:29 75.8 °F 72.3 °F 29.98 in Calm     89% 0.00 in 30 W/m2
06:34 75.9 °F 72.5 °F 29.98 in Calm     89% 0.00 in 37 W/m2
06:39 76 °F 72.6 °F 29.98 in Calm     89% 0.00 in 44 W/m2
06:44 76.2 °F 72.7 °F 29.98 in Calm     89% 0.00 in 53 W/m2
06:49 76.4 °F 72.9 °F 29.98 in Calm     89% 0.00 in 62 W/m2
06:54 76.7 °F 73.1 °F 29.98 in Calm   1 mph 88.6% 0.00 in 100 W/m2
06:59 77.2 °F 73.4 °F 29.98 in Calm   1 mph 88% 0.00 in 160 W/m2
07:04 77.8 °F 73.7 °F 29.98 in Calm   1 mph 87.4% 0.00 in 206 W/m2
07:09 78.5 °F 74 °F 29.98 in Calm     86% 0.00 in 216 W/m2
07:14 79.3 °F 74.4 °F 29.98 in Calm     85% 0.00 in 188 W/m2
07:19 80.2 °F 74.7 °F 29.98 in Calm     83.4% 0.00 in 204 W/m2
07:24 81.1 °F 74.9 °F 29.98 in Calm     81.5% 0.00 in 218 W/m2
07:29 81.9 °F 75 °F 29.98 in Calm     79.5% 0.00 in 232 W/m2
07:34 82.6 °F 75.4 °F 29.98 in Calm     78.8% 0.00 in 251 W/m2
07:39 83.3 °F 75.5 °F 29.97 in Calm     77.3% 0.00 in 267 W/m2
07:44 83.9 °F 75.6 °F 29.97 in Calm     76.2% 0.00 in 283 W/m2
07:49 84.5 °F 76.1 °F 29.98 in Calm     75.8% 0.00 in 301 W/m2
07:54 85.1 °F 76.2 °F 29.97 in WSW 0.1 mph 2 mph 74.9% 0.00 in 318 W/m2
07:59 85.5 °F 76.3 °F 29.97 in WSW 0.1 mph 2 mph 74% 0.00 in 329 W/m2
08:00 85.7 °F 76.5 °F 29.97 in WSW 2 mph 2 mph 74% 0.00 in 329 W/m2
08:09 86.2 °F 76.3 °F 29.98 in WSW 0.3 mph 4 mph 72.3% 0.00 in 362 W/m2
08:14 86.3 °F 76.3 °F 29.98 in WSW 0.3 mph 4 mph 72.3% 0.00 in 378 W/m2
08:19 86.3 °F 76.4 °F 29.97 in WSW 0.7 mph 5 mph 72.5% 0.00 in 401 W/m2
08:24 86.4 °F 76.5 °F 29.97 in WSW 0.2 mph 5 mph 72.5% 0.00 in 425 W/m2
08:29 86.6 °F 76.8 °F 29.97 in WSW 0.1 mph 5 mph 72.6% 0.00 in 432 W/m2
08:34 87 °F 77.3 °F 29.97 in WSW 0.3 mph 5 mph 72.9% 0.00 in 445 W/m2
08:39 87.6 °F 77.4 °F 29.97 in WSW 0.1 mph 3 mph 71.8% 0.00 in 461 W/m2
08:44 88.2 °F 77.4 °F 29.97 in WSW 0.1 mph 3 mph 70.5% 0.00 in 475 W/m2
08:49 88.4 °F 77.2 °F 29.97 in WSW 0.2 mph 3 mph 69.7% 0.00 in 487 W/m2
08:54 88.8 °F 77.6 °F 29.96 in West 0.7 mph 5 mph 69.7% 0.00 in 497 W/m2
08:59 89 °F 77.5 °F 29.96 in WSW 0.1 mph 5 mph 69% 0.00 in 515 W/m2
09:04 89.2 °F 77.6 °F 29.96 in WSW 0.6 mph 5 mph 68.6% 0.00 in 526 W/m2
09:09 89.5 °F 77.8 °F 29.96 in SW 0.5 mph 3 mph 68.6% 0.00 in 541 W/m2
09:14 89.9 °F 77.8 °F 29.95 in WSW 0.7 mph 4 mph 67.7% 0.00 in 554 W/m2
09:19 90.1 °F 77.7 °F 29.95 in WSW 0.7 mph 6 mph 67% 0.00 in 573 W/m2
09:30 90.9 °F 78.4 °F 29.95 in WSW 1 mph 7 mph 67% 0.00 in 558 W/m2
10:00 91.8 °F 77.9 °F 29.94 in WSW 1 mph 11 mph 64% 0.00 in 639 W/m2
10:30 93.8 °F 78.8 °F 29.94 in Calm   7 mph 62% 0.00 in 706 W/m2
11:30 95 °F 78.9 °F 29.93 in Calm   6 mph 60% 0.00 in 755 W/m2
12:04 93.5 °F 78.4 °F 29.93 in Calm     61.7% 0.00 in 1037 W/m2
12:09 93.7 °F 77.8 °F 29.93 in WSW 0.6 mph 4 mph 60.2% 0.00 in 1021 W/m2
12:14 93.7 °F 77.6 °F 29.93 in WSW 1.6 mph 6 mph 59.8% 0.00 in 1028 W/m2
12:19 93.5 °F 77.7 °F 29.93 in WSW 0.9 mph 6 mph 60.3% 0.00 in 1028 W/m2
12:24 93.7 °F 77.5 °F 29.92 in SW 2.8 mph 11 mph 59.5% 0.00 in 953 W/m2
12:29 94.1 °F 77.7 °F 29.92 in WSW 1.2 mph 11 mph 59.3% 0.00 in 979 W/m2
12:34 94.4 °F 77.6 °F 29.92 in SSW 0.8 mph 11 mph 58.4% 0.00 in 1044 W/m2
12:39 94.4 °F 76.8 °F 29.91 in SW 0.6 mph 5 mph 56.9% 0.00 in 1044 W/m2
12:44 94.4 °F 77 °F 29.91 in SW 1.5 mph 7 mph 57.3% 0.00 in 1000 W/m2
12:49 94.7 °F 76.9 °F 29.91 in WSW 0.5 mph 7 mph 56.6% 0.00 in 1009 W/m2
12:54 95.2 °F 77.5 °F 29.91 in WSW 0.2 mph 7 mph 56.9% 0.00 in 998 W/m2
12:59 95.6 °F 77.6 °F 29.91 in SSW 0.7 mph 7 mph 56.3% 0.00 in 983 W/m2
13:04 95.7 °F 77.1 °F 29.91 in SW 0.4 mph 7 mph 55.3% 0.00 in 977 W/m2
13:09 95.9 °F 77.7 °F 29.90 in West 1 mph 7 mph 56.1% 0.00 in 1065 W/m2
13:14 96.2 °F 77.9 °F 29.90 in WSW 0.8 mph 7 mph 55.9% 0.00 in 1025 W/m2
13:19 96.3 °F 77.3 °F 29.90 in WSW 1 mph 7 mph 54.7% 0.00 in 1132 W/m2
13:24 96 °F 76.5 °F 29.90 in SW 0.6 mph 7 mph 53.6% 0.00 in 253 W/m2
13:29 95.3 °F 75.9 °F 29.90 in WSW 0.8 mph 12 mph 53.9% 0.00 in 195 W/m2
13:34 94.6 °F 76.2 °F 29.90 in SW 0.3 mph 12 mph 55.4% 0.00 in 178 W/m2
13:39 94 °F 76.2 °F 29.90 in WSW 0.8 mph 10 mph 56.4% 0.00 in 158 W/m2
13:44 93.4 °F 76.4 °F 29.90 in WSW 2.9 mph 15 mph 57.9% 0.00 in 121 W/m2
13:49 92.4 °F 78 °F 29.91 in West 1.5 mph 15 mph 63.1% 0.03 in 105 W/m2
13:54 90.5 °F 78.3 °F 29.91 in WSW 1.4 mph 15 mph 67.6% 0.06 in 97 W/m2
13:59 88.1 °F 77.1 °F 29.90 in SW 0.1 mph 15 mph 70.1% 0.06 in 123 W/m2
14:04 86.1 °F 77 °F 29.90 in Calm   15 mph 74.5% 0.06 in 146 W/m2
14:09 84.8 °F 77.2 °F 29.90 in Calm     78% 0.06 in 206 W/m2
14:14 83.9 °F 77.2 °F 29.90 in Calm     80.6% 0.06 in 206 W/m2
14:19 83.2 °F 77.4 °F 29.90 in Calm     82.8% 0.06 in 192 W/m2
14:24 82.7 °F 77.4 °F 29.90 in SW 0.1 mph 2 mph 83.9% 0.06 in 167 W/m2
14:29 82.2 °F 76.8 °F 29.90 in SW 0.1 mph 2 mph 83.8% 0.06 in 165 W/m2
14:34 81.9 °F 76.6 °F 29.91 in Calm   2 mph 84% 0.06 in 181 W/m2
14:39 81.6 °F 76.6 °F 29.91 in Calm   1 mph 85% 0.06 in 257 W/m2
14:44 81.4 °F 76.6 °F 29.91 in SSW 0.2 mph 3 mph 85.5% 0.06 in 424 W/m2
14:49 81.2 °F 76.4 °F 29.91 in SSW 0.3 mph 3 mph 85.3% 0.06 in 355 W/m2
14:54 81.1 °F 76.5 °F 29.91 in SSW 0.3 mph 3 mph 86% 0.06 in 478 W/m2
14:58 81.2 °F 76.7 °F 29.91 in SSW 0.6 mph 4 mph 86.2% 0.06 in 647 W/m2
Hartford County Weather
Compliments of Weather Underground - 2 mb